Time;durP1;ratioP1;P1;durP2;ratioP2;P2;SDS_P1;SDS_P2;PMS_P1;PMS_P2;Temp;Humidity;BMP_temperature;BMP_pressure;BME280_temperature;BME280_humidity;BME280_pressure;Samples;Min_cycle;Max_cycle;Signal;HPM_P1;HPM_P2
2023/06/06 00:01:18;;;;;;;3.83;1.23;;;;;;;16.34;60.10;99720.41;5000220;28;20022;-92
2023/06/06 00:03:51;;;;;;;5.00;1.45;;;;;;;16.26;60.33;99706.69;4984751;28;20025;-91
2023/06/06 00:06:20;;;;;;;3.17;1.25;;;;;;;16.22;60.32;99702.97;4968809;28;20060;-92
2023/06/06 00:08:46;;;;;;;2.00;1.13;;;;;;;16.07;60.27;99698.59;4972586;28;20046;-91
2023/06/06 00:11:12;;;;;;;2.78;1.30;;;;;;;16.11;60.82;99703.13;4985087;28;20117;-92
2023/06/06 00:13:38;;;;;;;5.50;1.45;;;;;;;15.91;60.92;99692.59;4984494;28;20034;-92
2023/06/06 00:16:04;;;;;;;3.80;1.27;;;;;;;16.02;61.38;99709.53;4997151;28;20049;-92
2023/06/06 00:18:30;;;;;;;10.77;2.33;;;;;;;16.06;60.88;99703.22;4996432;28;20030;-92
2023/06/06 00:20:55;;;;;;;4.38;1.65;;;;;;;15.90;61.22;99680.94;4965126;28;20394;-92
2023/06/06 00:23:21;;;;;;;2.53;1.45;;;;;;;15.89;62.49;99686.66;4970652;28;20065;-93
2023/06/06 00:25:48;;;;;;;3.00;1.48;;;;;;;15.74;62.43;99679.56;4975584;28;20030;-93
2023/06/06 00:28:13;;;;;;;4.55;1.48;;;;;;;15.71;62.89;99691.78;4991774;28;20081;-94
2023/06/06 00:30:39;;;;;;;4.65;1.60;;;;;;;15.64;63.57;99688.63;4983356;28;20030;-93
2023/06/06 00:33:04;;;;;;;6.22;1.40;;;;;;;15.58;64.13;99689.78;4964475;28;20026;-92
2023/06/06 00:35:31;;;;;;;5.75;1.30;;;;;;;15.56;64.22;99700.97;4965160;28;20397;-92
2023/06/06 00:37:56;;;;;;;5.32;1.50;;;;;;;15.61;63.39;99683.78;4983032;28;20032;-93
2023/06/06 00:40:22;;;;;;;3.05;1.40;;;;;;;15.70;62.64;99686.66;4966369;28;20068;-91
2023/06/06 00:42:48;;;;;;;2.22;1.25;;;;;;;15.73;61.94;99676.03;4967794;28;20026;-93
2023/06/06 00:45:14;;;;;;;5.47;1.50;;;;;;;15.60;63.13;99675.94;4982979;28;20533;-92
2023/06/06 00:47:39;;;;;;;3.58;1.38;;;;;;;15.64;62.56;99676.97;4967426;28;20133;-93
2023/06/06 00:50:05;;;;;;;2.35;1.20;;;;;;;15.66;60.94;99672.03;4966701;28;20030;-93
2023/06/06 00:52:31;;;;;;;6.25;1.35;;;;;;;15.89;60.68;99695.59;4983154;28;20180;-93
2023/06/06 00:54:57;;;;;;;3.45;1.58;;;;;;;15.97;59.89;99696.84;4967084;28;20021;-93
2023/06/06 00:57:23;;;;;;;2.00;1.23;;;;;;;15.90;59.42;99689.06;4964789;28;20109;-93
2023/06/06 00:59:49;;;;;;;5.90;1.73;;;;;;;15.86;59.63;99690.78;4967598;28;20108;-92
2023/06/06 01:02:17;;;;;;;4.82;1.45;;;;;;;15.72;61.92;99687.97;4967363;28;20060;-93
2023/06/06 01:04:44;;;;;;;3.42;1.33;;;;;;;15.68;62.00;99694.28;4967619;28;20393;-92
2023/06/06 01:07:12;;;;;;;4.68;1.83;;;;;;;15.47;63.22;99677.47;4983138;28;20026;-93
2023/06/06 01:09:40;;;;;;;3.35;1.88;;;;;;;15.51;63.46;99679.31;4966735;28;20133;-93
2023/06/06 01:12:27;;;;;;;3.83;1.38;;;;;;;15.76;62.70;99702.59;4964015;28;20022;-92
2023/06/06 01:15:10;;;;;;;4.78;1.65;;;;;;;15.57;61.98;99683.56;4992156;28;20030;-93
2023/06/06 01:17:36;;;;;;;3.45;1.10;;;;;;;15.60;61.45;99674.03;4967271;28;20014;-93
2023/06/06 01:20:04;;;;;;;5.55;1.50;;;;;;;15.55;62.61;99679.53;4963532;28;20074;-92
2023/06/06 01:22:30;;;;;;;6.18;1.58;;;;;;;15.58;62.89;99676.22;4979043;28;20042;-93
2023/06/06 01:24:56;;;;;;;5.90;1.50;;;;;;;15.37;63.47;99662.16;4966531;28;20030;-92
2023/06/06 01:27:22;;;;;;;3.80;1.60;;;;;;;15.30;63.84;99667.94;4964333;28;20030;-92
2023/06/06 01:29:48;;;;;;;8.38;2.15;;;;;;;15.29;65.03;99673.66;4950110;28;20039;-93
2023/06/06 01:32:16;;;;;;;4.18;1.70;;;;;;;15.16;65.14;99665.13;4990883;28;20572;-93
2023/06/06 01:34:45;;;;;;;3.30;1.50;;;;;;;14.97;65.92;99652.66;5003178;28;20034;-92
2023/06/06 01:37:16;;;;;;;5.78;1.73;;;;;;;14.90;66.32;99647.56;4978309;28;20022;-93
2023/06/06 01:39:43;;;;;;;3.08;1.33;;;;;;;14.86;66.40;99654.69;5011612;28;20037;-92
2023/06/06 01:42:09;;;;;;;3.22;1.30;;;;;;;14.90;65.70;99640.25;4995182;28;20477;-93
2023/06/06 01:44:35;;;;;;;3.63;1.50;;;;;;;14.95;66.08;99652.94;4969915;28;20042;-92
2023/06/06 01:47:00;;;;;;;6.38;1.35;;;;;;;14.76;66.56;99631.22;4978944;28;20022;-92
2023/06/06 01:49:26;;;;;;;5.45;1.30;;;;;;;14.86;66.44;99647.38;4996006;28;20058;-92
2023/06/06 01:51:53;;;;;;;2.78;1.50;;;;;;;14.77;66.66;99651.00;4979339;28;20089;-93
2023/06/06 01:54:19;;;;;;;3.50;1.52;;;;;;;14.73;66.86;99645.34;4978140;28;20026;-93
2023/06/06 01:56:44;;;;;;;4.45;1.42;;;;;;;14.74;66.61;99660.53;4978329;28;20034;-92
2023/06/06 01:59:10;;;;;;;2.95;1.30;;;;;;;14.63;66.76;99640.88;4978799;28;20040;-92
2023/06/06 02:01:35;;;;;;;5.38;1.50;;;;;;;14.73;66.76;99664.31;4978504;28;20030;-92
2023/06/06 02:04:01;;;;;;;8.85;1.58;;;;;;;14.77;67.22;99676.19;4977746;28;20473;-92
2023/06/06 02:06:27;;;;;;;3.63;1.38;;;;;;;14.55;67.41;99647.72;4977704;28;20081;-93
2023/06/06 02:08:53;;;;;;;4.90;1.60;;;;;;;14.66;67.02;99669.28;4978296;28;20041;-92
2023/06/06 02:11:18;;;;;;;7.45;1.88;;;;;;;14.59;67.73;99666.09;4978811;28;20444;-92
2023/06/06 02:13:44;;;;;;;2.30;1.30;;;;;;;14.66;67.39;99669.28;4993849;28;20034;-93
2023/06/06 02:16:10;;;;;;;3.25;1.30;;;;;;;14.68;67.51;99677.94;4994282;28;20083;-93
2023/06/06 02:18:36;;;;;;;5.60;1.80;;;;;;;14.61;67.51;99662.03;4978047;28;20034;-93
2023/06/06 02:21:01;;;;;;;3.22;1.35;;;;;;;14.71;67.39;99680.88;4977991;28;20054;-92
2023/06/06 02:23:27;;;;;;;3.25;1.30;;;;;;;14.65;67.42;99673.91;4977781;28;20420;-92
2023/06/06 02:25:53;;;;;;;2.75;1.50;;;;;;;14.58;67.09;99662.59;4977777;28;20025;-92
2023/06/06 02:28:20;;;;;;;3.88;1.42;;;;;;;14.70;66.93;99663.00;4978829;28;20022;-93
2023/06/06 02:30:45;;;;;;;5.63;1.52;;;;;;;14.44;67.38;99672.47;4978420;28;20109;-93
2023/06/06 02:33:11;;;;;;;2.08;1.33;;;;;;;14.37;66.90;99655.75;4993968;28;20564;-92
2023/06/06 02:35:36;;;;;;;5.93;1.42;;;;;;;14.47;66.90;99667.28;4993613;28;20018;-93
2023/06/06 02:38:02;;;;;;;5.38;1.40;;;;;;;14.27;67.63;99662.88;4994312;28;20539;-92
2023/06/06 02:40:27;;;;;;;3.85;1.42;;;;;;;14.31;67.65;99672.03;4995121;28;20026;-93
2023/06/06 02:42:53;;;;;;;2.53;1.50;;;;;;;14.19;68.89;99687.84;4961481;28;20022;-93
2023/06/06 02:45:21;;;;;;;5.13;1.35;;;;;;;14.11;68.74;99672.22;4977553;28;20058;-92
2023/06/06 02:47:46;;;;;;;3.95;1.30;;;;;;;13.88;69.13;99654.81;4994345;28;20029;-91
2023/06/06 02:50:11;;;;;;;3.38;1.40;;;;;;;14.00;69.36;99668.00;4977976;28;20026;-92
2023/06/06 02:52:38;;;;;;;2.85;1.73;;;;;;;14.00;68.74;99682.34;4977606;28;20037;-93
2023/06/06 02:55:04;;;;;;;2.58;1.38;;;;;;;13.99;68.23;99661.78;4977647;28;20085;-92
2023/06/06 02:57:30;;;;;;;4.78;1.45;;;;;;;13.95;68.37;99664.25;4977814;28;20515;-92
2023/06/06 02:59:58;;;;;;;3.65;1.30;;;;;;;13.98;67.77;99681.00;4994367;28;20022;-92
2023/06/06 03:02:24;;;;;;;3.28;1.23;;;;;;;14.10;67.29;99678.75;4994184;28;20050;-93
2023/06/06 03:04:49;;;;;;;4.28;1.48;;;;;;;14.30;66.59;99675.06;4977034;28;20061;-93
2023/06/06 03:07:16;;;;;;;3.45;1.45;;;;;;;14.47;66.64;99690.88;4961775;28;20026;-92
2023/06/06 03:09:41;;;;;;;3.30;1.30;;;;;;;14.45;66.58;99684.94;4994263;28;20022;-92
2023/06/06 03:12:07;;;;;;;3.40;1.90;;;;;;;14.54;65.68;99684.00;4994014;28;20018;-92
2023/06/06 03:14:33;;;;;;;5.38;2.00;;;;;;;14.70;64.99;99684.69;4992736;28;20033;-92
2023/06/06 03:16:58;;;;;;;8.45;2.15;;;;;;;14.72;66.31;99706.09;4977735;28;20412;-92
2023/06/06 03:19:24;;;;;;;5.78;1.80;;;;;;;14.56;67.01;99702.72;4977431;28;20018;-94
2023/06/06 03:21:51;;;;;;;1.70;1.23;;;;;;;14.52;66.79;99702.44;4993617;28;20527;-93
2023/06/06 03:24:16;;;;;;;5.55;1.52;;;;;;;14.37;67.48;99683.63;4993828;28;20022;-93
2023/06/06 03:26:44;;;;;;;10.25;1.95;;;;;;;14.49;67.18;99694.09;4994170;28;20037;-92
2023/06/06 03:29:10;;;;;;;5.72;2.42;;;;;;;14.61;66.87;99697.25;4979317;28;20486;-90
2023/06/06 03:31:37;;;;;;;3.60;1.60;;;;;;;14.49;67.84;99680.56;4978213;28;20022;-91
2023/06/06 03:34:03;;;;;;;16.48;2.88;;;;;;;14.48;67.94;99704.09;4976604;28;20081;-90
2023/06/06 03:36:32;;;;;;;2.88;1.52;;;;;;;14.41;68.20;99709.06;4976747;28;20022;-90
2023/06/06 03:39:01;;;;;;;2.53;1.60;;;;;;;14.40;68.11;99695.78;4976874;28;20022;-91
2023/06/06 03:41:30;;;;;;;7.30;1.90;;;;;;;14.47;68.06;99707.13;4977180;28;20030;-91
2023/06/06 03:43:56;;;;;;;9.27;2.30;;;;;;;14.22;69.05;99690.00;4976243;28;20063;-92
2023/06/06 03:46:22;;;;;;;6.20;1.65;;;;;;;14.07;69.38;99692.84;4992839;28;20031;-92
2023/06/06 03:48:48;;;;;;;5.32;1.77;;;;;;;14.01;70.05;99685.84;4977210;28;20023;-93
2023/06/06 03:51:13;;;;;;;5.88;1.70;;;;;;;13.89;69.31;99659.97;4980837;28;20033;-91
2023/06/06 03:53:39;;;;;;;6.25;2.10;;;;;;;14.13;68.60;99683.56;4998629;28;20026;-93
2023/06/06 03:56:06;;;;;;;7.90;2.20;;;;;;;14.32;68.08;99698.03;4987307;28;20017;-91
2023/06/06 03:58:33;;;;;;;4.78;1.80;;;;;;;14.43;67.38;99698.75;4983534;28;20531;-92
2023/06/06 04:01:07;;;;;;;4.38;1.92;;;;;;;14.44;67.84;99696.84;4983086;28;20037;-92
2023/06/06 04:03:38;;;;;;;9.80;2.15;;;;;;;14.39;66.76;99686.06;4969477;28;20089;-92
2023/06/06 04:06:08;;;;;;;5.72;2.10;;;;;;;14.41;66.29;99681.97;4988045;28;20026;-92
2023/06/06 04:08:33;;;;;;;5.38;2.03;;;;;;;14.51;66.43;99664.81;5002876;28;20036;-94
2023/06/06 04:10:59;;;;;;;5.38;1.60;;;;;;;14.74;65.63;99680.28;5004189;28;20488;-94
2023/06/06 04:13:30;;;;;;;;;;;;;;;14.92;65.62;99695.00;4987644;28;20029;-92
2023/06/06 04:15:56;;;;;;;13.32;11.98;;;;;;;14.71;66.21;99659.19;5033558;28;19909;-92
2023/06/06 04:18:21;;;;;;;4.93;2.10;;;;;;;14.77;66.15;99672.69;4967283;28;20029;-91
2023/06/06 04:20:47;;;;;;;6.47;2.15;;;;;;;14.93;66.51;99674.91;4997184;28;20038;-92
2023/06/06 04:23:12;;;;;;;5.50;1.90;;;;;;;15.19;65.57;99688.19;4971001;28;20109;-92
2023/06/06 04:25:38;;;;;;;4.05;1.75;;;;;;;15.25;64.54;99676.16;4982403;28;20037;-91
2023/06/06 04:28:05;;;;;;;6.35;2.63;;;;;;;15.46;65.73;99678.56;4979976;28;20026;-92
2023/06/06 04:30:32;;;;;;;7.75;2.63;;;;;;;15.45;65.21;99674.25;4990032;28;20029;-91
2023/06/06 04:32:58;;;;;;;7.95;3.38;;;;;;;15.63;64.03;99686.22;4977508;28;20033;-91
2023/06/06 04:35:23;;;;;;;3.97;2.13;;;;;;;15.66;63.47;99667.41;4968924;28;20018;-92
2023/06/06 04:37:53;;;;;;;9.48;2.75;;;;;;;15.94;63.32;99694.72;4977626;28;20034;-92
2023/06/06 04:40:21;;;;;;;6.90;2.22;;;;;;;15.90;62.53;99680.13;4998636;28;20457;-92
2023/06/06 04:42:47;;;;;;;4.85;1.95;;;;;;;16.02;61.42;99677.75;5016686;28;20026;-92
2023/06/06 04:45:13;;;;;;;12.20;2.92;;;;;;;16.22;61.21;99673.88;4999492;28;20055;-89
2023/06/06 04:47:40;;;;;;;4.75;1.98;;;;;;;16.35;60.18;99670.38;4997901;28;20037;-91
2023/06/06 04:50:07;;;;;;;6.95;2.20;;;;;;;16.45;60.00;99672.09;4996505;28;20026;-91
2023/06/06 04:52:35;;;;;;;4.40;2.20;;;;;;;16.72;59.40;99697.69;5013094;28;20431;-92
2023/06/06 04:55:03;;;;;;;5.63;2.65;;;;;;;16.78;57.69;99694.56;4996067;28;20018;-90
2023/06/06 04:57:28;;;;;;;3.45;1.27;;;;;;;16.90;55.72;99709.63;4993290;28;20026;-90
2023/06/06 04:59:54;;;;;;;3.08;1.38;;;;;;;16.83;54.82;99680.13;4995118;28;20031;-89
2023/06/06 05:02:20;;;;;;;4.53;1.77;;;;;;;16.95;56.25;99690.47;4997665;28;20034;-90
2023/06/06 05:05:01;;;;;;;3.65;1.98;;;;;;;17.05;54.87;99682.09;4961116;28;20030;-90
2023/06/06 05:07:27;;;;;;;2.35;1.35;;;;;;;17.15;53.47;99681.91;4995958;28;20022;-90
2023/06/06 05:10:15;;;;;;;5.70;1.90;;;;;;;17.53;52.88;99713.47;4978142;28;20033;-90
2023/06/06 05:12:40;;;;;;;3.33;1.42;;;;;;;17.42;50.73;99693.06;4984636;28;20121;-91
2023/06/06 05:15:08;;;;;;;4.82;1.92;;;;;;;17.58;51.45;99694.31;4973885;28;20121;-91
2023/06/06 05:17:36;;;;;;;3.55;1.80;;;;;;;17.68;51.70;99691.38;4994005;28;20045;-92
2023/06/06 05:20:08;;;;;;;3.78;2.05;;;;;;;17.82;51.27;99685.06;5000275;28;20085;-92
2023/06/06 05:22:33;;;;;;;5.22;1.80;;;;;;;18.01;51.32;99702.03;4975096;28;20036;-91
2023/06/06 05:24:59;;;;;;;6.30;2.05;;;;;;;18.13;49.82;99699.56;4996369;28;20033;-89
2023/06/06 05:27:25;;;;;;;7.25;2.00;;;;;;;18.44;48.81;99709.69;4999042;28;20052;-91
2023/06/06 05:29:51;;;;;;;7.47;1.63;;;;;;;18.26;48.12;99683.44;4965251;28;20125;-91
2023/06/06 05:32:16;;;;;;;7.30;2.00;;;;;;;18.36;48.21;99686.72;4987780;28;20053;-91
2023/06/06 05:48:33;;;;;;;5.43;1.70;;;;;;;19.18;44.84;99689.13;5136755;27;20392;-92
2023/06/06 05:50:58;;;;;;;7.97;1.92;;;;;;;19.23;44.75;99693.63;5113197;27;20041;-91
2023/06/06 05:53:24;;;;;;;4.97;3.03;;;;;;;19.35;45.15;99705.53;5091003;28;20114;-90
2023/06/06 05:55:50;;;;;;;2.30;1.55;;;;;;;19.24;46.61;99706.97;5099170;28;20477;-90
2023/06/06 05:58:16;;;;;;;3.20;1.40;;;;;;;19.18;44.10;99692.66;5098167;28;20031;-91
2023/06/06 06:00:49;;;;;;;5.10;1.63;;;;;;;19.37;44.57;99708.75;5082615;28;20023;-91
2023/06/06 06:03:15;;;;;;;3.67;1.60;;;;;;;19.30;44.40;99711.16;5080778;28;20024;-91
2023/06/06 06:05:40;;;;;;;3.95;1.40;;;;;;;19.56;43.92;99718.59;5098761;28;20023;-92
2023/06/06 06:08:51;;;;;;;2.22;1.35;;;;;;;19.61;43.05;99723.09;5083593;28;20020;-95
2023/06/06 06:11:26;;;;;;;5.32;2.38;;;;;;;19.43;43.62;99703.16;5034105;28;20094;-88
2023/06/06 06:13:55;;;;;;;2.33;1.40;;;;;;;19.61;42.73;99720.34;5086713;28;20048;-89
2023/06/06 06:16:26;;;;;;;2.22;1.38;;;;;;;19.77;42.09;99705.91;5099673;28;20015;-89
2023/06/06 06:19:05;;;;;;;2.83;1.30;;;;;;;19.94;40.60;99707.88;5100279;28;20027;-91
2023/06/06 06:21:32;;;;;;;2.90;1.42;;;;;;;20.21;40.55;99726.94;5099730;28;20028;-87
2023/06/06 06:23:57;;;;;;;3.63;1.55;;;;;;;20.20;35.45;99696.09;5077704;28;20171;-87
2023/06/06 06:26:44;;;;;;;6.90;1.95;;;;;;;20.39;36.57;99717.59;5108044;28;20030;-87
2023/06/06 06:29:20;;;;;;;4.78;2.05;;;;;;;20.32;34.37;99690.75;5122458;27;20091;-89
2023/06/06 06:31:52;;;;;;;5.80;3.17;;;;;;;20.52;33.63;99696.63;5113250;28;20016;-88
2023/06/06 06:34:20;;;;;;;3.00;2.10;;;;;;;20.70;33.36;99708.34;5089320;28;20042;-88
2023/06/06 06:37:04;;;;;;;3.40;1.75;;;;;;;20.70;31.18;99698.22;5111834;28;20106;-87
2023/06/06 06:39:45;;;;;;;3.05;1.50;;;;;;;20.85;30.08;99696.06;5100319;28;20015;-88
2023/06/06 06:42:14;;;;;;;3.45;1.60;;;;;;;20.79;29.31;99696.25;5103989;28;20020;-86
2023/06/06 06:48:44;;;;;;;5.32;3.33;;;;;;;21.10;29.22;99702.53;5054392;28;20043;-87
2023/06/06 06:51:33;;;;;;;5.90;2.70;;;;;;;21.27;30.09;99694.22;5042625;28;20041;-88
2023/06/06 06:54:26;;;;;;;4.97;2.20;;;;;;;21.50;30.23;99708.44;4968153;28;20047;-89
2023/06/06 06:56:54;;;;;;;4.10;1.60;;;;;;;21.36;30.08;99696.91;4991966;28;20044;-88
2023/06/06 06:59:30;;;;;;;3.75;1.52;;;;;;;21.63;30.17;99711.25;5061785;28;20453;-88
2023/06/06 07:01:58;;;;;;;3.65;1.67;;;;;;;21.70;30.21;99716.97;5082582;28;20456;-88
2023/06/06 07:04:27;;;;;;;4.88;1.90;;;;;;;21.68;30.53;99711.03;5101617;28;20028;-87
2023/06/06 07:07:01;;;;;;;2.53;1.52;;;;;;;21.89;29.18;99727.47;5081123;28;20024;-87
2023/06/06 07:09:29;;;;;;;3.90;1.65;;;;;;;21.67;28.52;99698.47;5094061;28;20023;-89
2023/06/06 07:11:55;;;;;;;6.85;1.75;;;;;;;21.89;27.42;99714.56;5092509;28;20031;-88
2023/06/06 07:14:26;;;;;;;11.63;5.05;;;;;;;22.02;28.20;99720.91;5083192;28;20035;-87
2023/06/06 07:16:52;;;;;;;5.85;3.90;;;;;;;21.95;28.28;99710.47;5084644;28;20053;-87
2023/06/06 07:19:18;;;;;;;4.97;2.25;;;;;;;22.07;27.65;99706.19;5099244;28;20105;-87
2023/06/06 07:21:44;;;;;;;2.85;1.55;;;;;;;22.20;27.56;99705.06;5115964;28;20028;-89
2023/06/06 07:24:20;;;;;;;3.35;1.60;;;;;;;22.19;27.69;99703.50;5081864;28;20095;-89
2023/06/06 07:30:57;;;;;;;2.60;1.42;;;;;;;22.16;27.32;99698.66;5026294;28;20025;-91
2023/06/06 07:33:24;;;;;;;3.05;1.73;;;;;;;22.10;27.28;99694.53;5001486;28;20045;-90
2023/06/06 07:36:00;;;;;;;3.75;1.83;;;;;;;22.23;27.36;99711.84;5066352;28;20112;-89
2023/06/06 07:38:27;;;;;;;5.45;1.83;;;;;;;22.37;24.65;99728.81;5102575;27;20031;-89
2023/06/06 07:40:52;;;;;;;2.58;1.50;;;;;;;22.40;24.20;99726.19;5099680;28;20031;-88
2023/06/06 07:43:18;;;;;;;2.85;1.73;;;;;;;22.31;23.91;99725.50;5076956;28;20253;-88
2023/06/06 07:45:53;;;;;;;2.70;1.60;;;;;;;22.35;23.30;99718.19;5077722;28;20595;-88
2023/06/06 07:48:19;;;;;;;2.28;1.58;;;;;;;22.41;25.86;99705.03;5092349;28;20059;-89
2023/06/06 07:50:46;;;;;;;4.45;2.30;;;;;;;22.51;26.15;99695.59;5078969;28;20019;-91
2023/06/06 07:53:11;;;;;;;3.92;1.90;;;;;;;22.76;26.05;99726.59;5083552;28;20092;-92
2023/06/06 07:55:53;;;;;;;3.22;1.70;;;;;;;22.90;27.04;99723.53;5077816;28;20023;-92
2023/06/06 07:58:52;;;;;;;6.45;2.42;;;;;;;23.14;27.09;99740.06;5074528;28;20127;-92
2023/06/06 08:01:43;;;;;;;;;;;;;;;;;;;;;
2023/06/06 08:04:09;;;;;;;2.83;1.52;;;;;;;23.10;25.69;99700.69;5064088;28;20450;-91
2023/06/06 08:14:31;;;;;;;2.35;1.50;;;;;;;23.53;25.50;99723.16;4909905;29;20113;-92
2023/06/06 08:16:56;;;;;;;2.70;1.67;;;;;;;23.44;24.00;99717.81;4887546;29;20052;-93
2023/06/06 08:19:28;;;;;;;2.30;1.40;;;;;;;23.48;23.43;99709.66;4972650;28;20041;-93
2023/06/06 08:21:53;;;;;;;;;;;;;;;23.62;24.96;99723.03;5022572;28;20040;-93
2023/06/06 08:24:22;;;;;;;6.05;2.95;;;;;;;23.43;24.08;99693.41;5065130;28;19920;-94
2023/06/06 08:26:50;;;;;;;3.72;2.10;;;;;;;23.56;23.79;99697.75;5047499;28;20037;-95
2023/06/06 08:30:12;;;;;;;4.18;2.00;;;;;;;23.82;25.41;99713.03;5064917;28;20043;-94
2023/06/06 08:32:37;;;;;;;4.03;1.92;;;;;;;23.69;26.20;99695.75;5081879;28;20039;-95
2023/06/06 08:35:08;;;;;;;5.38;2.33;;;;;;;23.83;26.39;99698.16;5109873;28;20115;-92
2023/06/06 08:37:44;;;;;;;3.45;1.58;;;;;;;23.88;26.05;99704.19;5049348;28;20059;-93
2023/06/06 08:40:11;;;;;;;17.27;13.60;;;;;;;23.78;26.29;99718.41;5033874;28;20048;-92
2023/06/06 08:42:57;;;;;;;5.10;2.13;;;;;;;23.57;27.83;99694.66;5063268;28;20037;-94
2023/06/06 08:45:30;;;;;;;2.20;1.45;;;;;;;23.65;25.97;99686.59;5036065;28;20032;-93
2023/06/06 08:48:05;;;;;;;;;;;;;;;;;;;;;
2023/06/06 08:50:33;;;;;;;24.77;16.25;;;;;;;24.02;25.67;99711.25;5050713;28;20100;-96
2023/06/06 08:53:04;;;;;;;2.97;1.90;;;;;;;23.89;24.71;99691.25;5042866;28;20075;-95
2023/06/06 08:55:48;;;;;;;2.72;1.58;;;;;;;24.03;24.22;99688.06;5055040;28;20082;-94
2023/06/06 08:58:14;;;;;;;2.58;1.40;;;;;;;24.25;24.65;99705.97;5047122;28;20089;-95
2023/06/06 09:00:40;;;;;;;3.08;2.20;;;;;;;24.28;24.29;99688.75;5042916;28;20109;-94
2023/06/06 09:03:11;;;;;;;3.15;1.73;;;;;;;24.39;23.71;99693.38;5033277;28;20045;-94
2023/06/06 09:05:46;;;;;;;2.17;1.65;;;;;;;24.53;22.90;99712.25;5035810;28;20029;-93
2023/06/06 09:08:12;;;;;;;22.63;16.00;;;;;;;24.46;22.92;99697.47;5031879;28;20120;-93
2023/06/06 09:10:40;;;;;;;3.83;2.10;;;;;;;24.53;23.44;99690.25;5035334;28;20064;-94
2023/06/06 09:13:07;;;;;;;4.93;1.80;;;;;;;24.73;24.17;99699.38;5041718;28;20024;-93
2023/06/06 09:15:47;;;;;;;4.88;1.90;;;;;;;24.79;22.56;99688.88;5055450;28;20123;-94
2023/06/06 09:18:17;;;;;;;2.95;1.90;;;;;;;24.80;22.70;99680.28;5077901;28;20130;-94
2023/06/06 09:20:42;;;;;;;3.65;1.60;;;;;;;24.77;22.49;99680.19;5080847;28;20020;-95
2023/06/06 09:23:14;;;;;;;3.95;1.73;;;;;;;24.86;22.61;99694.59;5072263;28;20032;-93
2023/06/06 09:25:48;;;;;;;3.53;2.10;;;;;;;24.86;22.36;99678.06;5070515;28;20404;-93
2023/06/06 09:28:13;;;;;;;7.25;2.63;;;;;;;24.95;24.72;99675.13;5069504;28;20040;-94
2023/06/06 09:30:40;;;;;;;2.97;1.80;;;;;;;25.23;23.15;99685.22;5070272;28;20028;-94
2023/06/06 09:33:11;;;;;;;3.55;2.08;;;;;;;25.35;22.54;99674.84;5087395;28;20028;-94
2023/06/06 09:35:43;;;;;;;3.20;2.08;;;;;;;25.43;21.78;99675.81;5085732;28;20028;-94
2023/06/06 09:38:18;;;;;;;5.13;2.53;;;;;;;25.60;22.36;99671.84;5076381;28;20125;-92
2023/06/06 09:40:48;;;;;;;4.72;2.17;;;;;;;25.55;21.53;99670.16;5084619;28;20031;-95
2023/06/06 09:43:15;;;;;;;8.05;2.35;;;;;;;25.61;21.65;99667.94;5110818;28;20028;-93
2023/06/06 09:45:50;;;;;;;3.75;1.65;;;;;;;25.59;21.48;99651.75;5067382;28;20031;-95
2023/06/06 09:48:24;;;;;;;4.60;1.95;;;;;;;25.84;20.89;99661.66;5081043;28;20052;-96
2023/06/06 09:50:52;;;;;;;2.42;1.67;;;;;;;25.90;20.57;99658.28;5070268;28;20054;-93
2023/06/06 09:53:20;;;;;;;3.30;1.65;;;;;;;25.85;19.91;99639.22;5082916;28;20154;-95
2023/06/06 09:55:55;;;;;;;;;;;;;;;;;;;;;
2023/06/06 09:58:22;;;;;;;8.68;2.50;;;;;;;26.27;19.71;99648.69;5086401;28;20114;-94
2023/06/06 10:00:48;;;;;;;3.63;2.10;;;;;;;26.38;19.85;99661.53;5065010;28;20055;-95
2023/06/06 10:03:18;;;;;;;8.25;2.30;;;;;;;26.37;20.36;99640.59;5078283;28;20046;-95
2023/06/06 10:05:50;;;;;;;2.30;1.55;;;;;;;26.41;20.13;99651.69;5096346;28;20024;-93
2023/06/06 10:08:19;;;;;;;2.58;1.70;;;;;;;26.57;18.67;99644.09;5112251;28;20035;-93
2023/06/06 10:10:57;;;;;;;4.47;1.70;;;;;;;26.65;19.61;99641.47;5103058;28;20036;-86
2023/06/06 10:13:30;;;;;;;3.42;1.90;;;;;;;26.65;19.48;99622.13;5077693;28;20043;-88
2023/06/06 10:15:56;;;;;;;4.13;2.50;;;;;;;26.73;19.95;99651.44;5075591;28;20031;-88
2023/06/06 10:18:24;;;;;;;7.15;2.00;;;;;;;26.71;19.63;99626.16;5101205;28;20408;-90
2023/06/06 10:20:57;;;;;;;3.35;1.70;;;;;;;26.84;19.13;99624.00;5090364;28;20408;-88
2023/06/06 10:23:23;;;;;;;2.97;1.95;;;;;;;26.82;19.13;99627.13;5097707;27;20523;-89
2023/06/06 10:25:48;;;;;;;4.15;1.92;;;;;;;26.98;20.45;99615.91;5084021;28;20019;-91
2023/06/06 10:28:59;;;;;;;4.18;2.00;;;;;;;27.29;20.78;99639.66;5082556;28;20027;-89
2023/06/06 10:34:37;;;;;;;3.78;1.75;;;;;;;27.53;18.23;99635.59;5107398;28;20019;-93
2023/06/06 10:37:16;;;;;;;3.05;1.92;;;;;;;27.66;19.06;99629.81;5087848;28;20034;-93
2023/06/06 10:40:00;;;;;;;4.10;1.70;;;;;;;27.65;19.49;99611.66;5094146;28;20031;-94
2023/06/06 10:42:46;;;;;;;2.50;1.50;;;;;;;27.52;19.76;99603.59;5089404;28;20110;-92
2023/06/06 10:45:41;;;;;;;5.78;2.55;;;;;;;27.61;20.69;99626.22;5098133;28;20047;-93
2023/06/06 10:49:06;;;;;;;3.15;1.90;;;;;;;27.50;19.47;99581.06;5091254;28;20032;-94
2023/06/06 10:51:35;;;;;;;4.27;2.10;;;;;;;27.63;19.44;99592.66;5081699;28;20048;-92
2023/06/06 10:54:22;;;;;;;6.28;2.10;;;;;;;27.75;20.46;99613.75;5032538;28;20041;-93
2023/06/06 10:57:30;;;;;;;6.00;2.08;;;;;;;27.44;21.34;99614.97;5049015;28;20060;-94
2023/06/06 10:59:56;;;;;;;2.42;1.70;;;;;;;27.40;22.00;99593.56;5060695;28;20135;-91
2023/06/06 11:02:37;;;;;;;2.92;1.90;;;;;;;27.40;21.56;99592.78;5047849;28;20029;-94
2023/06/06 11:05:18;;;;;;;6.25;2.67;;;;;;;27.52;22.51;99583.44;5048321;28;20067;-94
2023/06/06 11:07:49;;;;;;;5.78;2.30;;;;;;;27.81;21.12;99599.19;5033237;28;20032;-93
2023/06/06 11:10:21;;;;;;;5.10;2.00;;;;;;;27.46;19.42;99580.22;5033225;28;20037;-91
2023/06/06 11:12:49;;;;;;;3.42;2.10;;;;;;;27.45;20.14;99588.88;5061816;28;20128;-93
2023/06/06 11:15:34;;;;;;;2.75;1.95;;;;;;;27.63;18.97;99583.56;5034173;28;20058;-94
2023/06/06 11:18:02;;;;;;;3.40;1.80;;;;;;;27.69;19.30;99579.28;5047002;28;20025;-93
2023/06/06 11:20:28;;;;;;;4.65;3.22;;;;;;;27.68;20.03;99558.31;5027292;28;20037;-91
2023/06/06 11:23:08;;;;;;;3.60;2.50;;;;;;;27.82;20.91;99575.84;5076938;28;20502;-92
2023/06/06 11:25:35;;;;;;;3.15;2.00;;;;;;;27.93;19.09;99564.13;5084755;28;20039;-93
2023/06/06 11:28:04;;;;;;;3.58;2.20;;;;;;;28.16;19.65;99566.69;5089489;28;20047;-93
2023/06/06 11:30:47;;;;;;;3.88;2.10;;;;;;;28.19;20.79;99582.56;5089019;28;20038;-92
2023/06/06 11:33:20;;;;;;;2.97;1.80;;;;;;;28.07;19.82;99557.94;5115840;28;20031;-92
2023/06/06 11:35:46;;;;;;;2.50;1.80;;;;;;;28.12;21.18;99565.88;5095148;28;20024;-92
2023/06/06 11:38:11;;;;;;;3.60;1.90;;;;;;;28.08;20.67;99565.03;5097591;28;20024;-93
2023/06/06 11:40:39;;;;;;;3.30;2.10;;;;;;;28.30;20.71;99552.97;5084895;28;20011;-93
2023/06/06 11:43:05;;;;;;;4.10;1.95;;;;;;;28.55;20.95;99571.78;5093379;28;20055;-91
2023/06/06 11:45:59;;;;;;;5.65;1.98;;;;;;;28.44;21.20;99570.88;5095274;28;20118;-94
2023/06/06 11:48:30;;;;;;;3.90;1.95;;;;;;;28.39;20.37;99567.28;5085792;28;20497;-93
2023/06/06 11:51:50;;;;;;;;;;;;;;;;;;;;;
2023/06/06 11:57:36;;;;;;;7.40;2.60;;;;;;;28.52;22.36;99547.63;5076636;28;20093;-93
2023/06/06 12:00:10;;;;;;;57.75;45.35;;;;;;;29.00;21.30;99547.50;5068792;28;20173;-92
2023/06/06 12:02:37;;;;;;;8.80;4.93;;;;;;;28.89;21.44;99525.28;5067826;28;20031;-94
2023/06/06 12:05:06;;;;;;;4.32;2.25;;;;;;;29.06;21.31;99540.38;5047862;28;20063;-92
2023/06/06 12:07:32;;;;;;;4.07;2.30;;;;;;;28.96;21.43;99516.97;5044083;28;20040;-92
2023/06/06 12:10:00;;;;;;;3.13;1.92;;;;;;;28.93;22.25;99528.03;5050090;28;20032;-93
2023/06/06 12:12:29;;;;;;;2.85;1.83;;;;;;;28.84;22.32;99511.75;5050612;28;20158;-92
2023/06/06 12:15:32;;;;;;;;;;;;;;;;;;;;;
2023/06/06 12:18:12;;;;;;;4.43;2.28;;;;;;;28.96;22.34;99508.66;5020100;28;20117;-93
2023/06/06 12:20:38;;;;;;;2.55;1.95;;;;;;;29.04;22.27;99509.50;5069292;28;20124;-94
2023/06/06 12:23:06;;;;;;;2.83;2.00;;;;;;;29.14;21.98;99514.31;5091417;28;20023;-95
2023/06/06 12:25:32;;;;;;;3.75;2.33;;;;;;;29.22;22.76;99526.22;5095389;28;20057;-94
2023/06/06 12:28:10;;;;;;;2.58;2.10;;;;;;;29.29;22.64;99517.91;5080138;28;20039;-94
2023/06/06 12:31:01;;;;;;;7.30;2.85;;;;;;;29.19;23.18;99516.69;5102662;28;20032;-95